Time;durP1;ratioP1;P1;durP2;ratioP2;P2;SDS_P1;SDS_P2;PMS_P1;PMS_P2;Temp;Humidity;BMP_temperature;BMP_pressure;BME280_temperature;BME280_humidity;BME280_pressure;Samples;Min_cycle;Max_cycle;Signal;HPM_P1;HPM_P2
2023/01/17 00:17:05;;;;;;;9.07;5.40;;;;;;;20.95;54.67;98024.72;20935451;28;20056;-90
2023/01/17 01:38:51;;;;;;;7.38;5.57;;;;;;;20.89;54.85;98020.16;20930872;28;20045;-90
2023/01/17 01:49:16;;;;;;;6.40;5.10;;;;;;;20.87;55.23;98045.00;20945147;28;20117;-86
2023/01/17 01:59:18;;;;;;;6.50;4.88;;;;;;;20.86;54.95;98023.16;20945433;28;20526;-88
2023/01/17 02:09:19;;;;;;;6.72;4.90;;;;;;;20.83;54.77;97997.19;20934622;28;20037;-85
2023/01/17 02:19:46;;;;;;;6.50;4.60;;;;;;;20.80;55.13;97981.75;20937052;28;20056;-89
2023/01/17 02:30:26;;;;;;;7.32;4.97;;;;;;;20.82;54.89;97994.72;20896545;28;20048;-88
2023/01/17 02:40:48;;;;;;;6.40;4.85;;;;;;;20.76;54.93;97988.34;20934016;28;20124;-88
2023/01/17 02:51:06;;;;;;;6.93;4.85;;;;;;;20.76;55.03;97970.78;20928127;28;20522;-88
2023/01/17 03:01:18;;;;;;;6.55;4.82;;;;;;;20.77;54.90;97940.03;20930072;28;20041;-85
2023/01/17 03:11:19;;;;;;;6.73;4.77;;;;;;;20.71;54.96;97901.25;20938610;28;20057;-88
2023/01/17 03:21:22;;;;;;;6.82;5.13;;;;;;;20.71;55.24;97894.16;20939378;28;20804;-88
2023/01/17 03:31:23;;;;;;;6.97;5.07;;;;;;;20.71;55.21;97882.84;20956290;28;20087;-88
2023/01/17 03:41:24;;;;;;;5.85;4.55;;;;;;;20.70;55.01;97868.88;20936994;28;20036;-87
2023/01/17 03:51:24;;;;;;;5.88;4.72;;;;;;;20.68;55.24;97857.72;20936424;28;20044;-88
2023/01/17 04:01:26;;;;;;;6.97;4.75;;;;;;;20.64;55.31;97838.00;20921696;28;20901;-89
2023/01/17 04:11:26;;;;;;;5.70;4.65;;;;;;;20.63;55.37;97854.81;20925993;28;20052;-89
2023/01/17 04:21:27;;;;;;;5.72;4.40;;;;;;;20.62;55.22;97847.91;20939816;28;20052;-88
2023/01/17 04:31:27;;;;;;;6.53;4.43;;;;;;;20.65;55.23;97855.44;20938576;28;20049;-89
2023/01/17 04:41:28;;;;;;;6.47;4.18;;;;;;;20.66;55.25;97858.88;20956429;28;20075;-87
2023/01/17 04:51:28;;;;;;;6.03;4.60;;;;;;;20.65;55.09;97850.16;20947380;28;20346;-88
2023/01/17 05:01:29;;;;;;;6.63;3.90;;;;;;;20.71;54.49;97849.47;20942927;28;20040;-89
2023/01/17 05:11:30;;;;;;;4.97;3.80;;;;;;;20.70;54.46;97857.53;20932679;27;20049;-85
2023/01/17 05:21:31;;;;;;;7.07;4.30;;;;;;;20.75;54.96;97856.06;20935054;28;20965;-86
2023/01/17 05:31:32;;;;;;;15.15;4.95;;;;;;;20.87;56.46;97858.25;20926239;28;20037;-88
2023/01/17 05:41:33;;;;;;;13.13;5.35;;;;;;;20.93;56.83;97855.72;20922782;28;20044;-90
2023/01/17 05:51:36;;;;;;;15.85;5.55;;;;;;;21.03;55.09;97871.25;20952656;28;20044;-87
2023/01/17 06:01:36;;;;;;;9.98;4.28;;;;;;;21.07;54.49;97900.66;20942039;27;20040;-90
2023/01/17 06:11:37;;;;;;;12.77;5.32;;;;;;;21.04;51.90;97914.16;20924081;28;20060;-87
2023/01/17 06:21:37;;;;;;;9.18;4.43;;;;;;;21.14;53.42;97922.63;20930875;28;20057;-87
2023/01/17 06:31:38;;;;;;;8.60;4.40;;;;;;;21.23;54.75;97928.63;20929913;28;20041;-89
2023/01/17 06:41:38;;;;;;;6.43;3.60;;;;;;;21.30;54.52;97936.63;20912989;28;20112;-88
2023/01/17 06:51:39;;;;;;;6.88;3.65;;;;;;;21.36;54.28;97964.84;20925698;28;20036;-85
2023/01/17 07:01:40;;;;;;;7.78;3.75;;;;;;;21.42;54.22;97991.28;20931567;28;20975;-86
2023/01/17 07:11:44;;;;;;;6.70;3.42;;;;;;;21.47;54.15;98003.94;20940419;28;20128;-92
2023/01/17 07:21:51;;;;;;;8.38;3.50;;;;;;;21.52;54.22;98019.16;20954209;28;20083;-85
2023/01/17 07:31:51;;;;;;;7.15;3.40;;;;;;;21.56;53.69;98031.84;20946056;28;20048;-92
2023/01/17 07:41:52;;;;;;;7.60;3.50;;;;;;;21.62;54.37;98048.75;20942817;28;20181;-87
2023/01/17 07:51:54;;;;;;;10.50;4.20;;;;;;;21.61;53.43;98070.81;20936825;28;20043;-86
2023/01/17 08:01:54;;;;;;;8.93;3.33;;;;;;;21.67;53.54;98101.69;20957792;28;20036;-86
2023/01/17 08:11:54;;;;;;;8.60;3.75;;;;;;;21.70;53.09;98104.00;20966376;28;20059;-86
2023/01/17 08:21:55;;;;;;;7.65;3.13;;;;;;;21.71;53.27;98108.22;20971644;28;20584;-86
2023/01/17 08:31:55;;;;;;;6.00;2.75;;;;;;;21.77;52.87;98132.25;20973523;28;20044;-87
2023/01/17 08:42:02;;;;;;;6.30;2.78;;;;;;;21.83;53.26;98139.44;20966849;28;20124;-86
2023/01/17 08:52:04;;;;;;;5.25;2.42;;;;;;;21.85;52.67;98138.25;20981319;28;20048;-89
2023/01/17 09:02:13;;;;;;;5.53;2.47;;;;;;;21.86;52.34;98157.50;20965310;28;20052;-87
2023/01/17 09:12:14;;;;;;;4.43;2.40;;;;;;;21.91;52.38;98184.16;20969138;28;20057;-87
2023/01/17 09:22:14;;;;;;;4.75;2.58;;;;;;;21.96;52.36;98181.81;20967631;28;20045;-88
2023/01/17 09:32:16;;;;;;;6.07;2.60;;;;;;;22.01;52.29;98176.03;20978497;28;20037;-87
2023/01/17 09:52:29;;;;;;;5.18;2.03;;;;;;;22.14;52.90;98218.41;20232705;26;20585;-85
2023/01/17 10:02:40;;;;;;;2.88;1.90;;;;;;;22.20;53.40;98235.31;20886872;28;20070;-87
2023/01/17 10:13:09;;;;;;;3.22;2.08;;;;;;;22.25;53.45;98234.78;20898831;28;20036;-88
2023/01/17 10:23:38;;;;;;;2.80;1.90;;;;;;;22.32;53.03;98238.34;20838581;28;20057;-86
2023/01/17 10:33:49;;;;;;;4.35;2.00;;;;;;;22.42;53.03;98232.84;20895345;28;20079;-91
2023/01/17 10:44:36;;;;;;;4.75;1.85;;;;;;;22.49;53.12;98220.59;20911400;28;20041;-91
2023/01/17 10:54:52;;;;;;;4.07;1.65;;;;;;;22.56;52.75;98197.75;20912601;28;21383;-88
2023/01/17 11:04:54;;;;;;;3.85;1.98;;;;;;;22.63;52.67;98187.28;20967747;28;20059;-89
2023/01/17 11:15:10;;;;;;;2.90;1.83;;;;;;;22.68;52.54;98159.38;20972718;28;20041;-91
2023/01/17 11:25:20;;;;;;;2.72;1.52;;;;;;;22.76;52.53;98168.19;20969125;28;20047;-89
2023/01/17 11:35:26;;;;;;;3.25;1.60;;;;;;;22.82;52.00;98149.78;20953673;28;20086;-92
2023/01/17 11:45:29;;;;;;;2.55;1.70;;;;;;;22.89;52.17;98126.16;20927902;28;20037;-90
2023/01/17 11:55:30;;;;;;;2.17;1.70;;;;;;;22.97;51.92;98136.59;20928475;28;20041;-89
2023/01/17 12:05:33;;;;;;;2.30;1.30;;;;;;;23.05;51.91;98158.63;20952399;28;20036;-86
2023/01/17 12:15:43;;;;;;;2.30;1.42;;;;;;;23.11;51.44;98171.88;20938687;28;20049;-88
2023/01/17 12:26:18;;;;;;;1.95;1.20;;;;;;;23.17;51.40;98168.53;20924631;28;20174;-90
2023/01/17 12:36:34;;;;;;;3.00;1.45;;;;;;;23.14;51.27;98166.25;20915955;28;20056;-88
2023/01/17 12:46:42;;;;;;;2.20;1.05;;;;;;;23.10;51.19;98161.50;20932294;28;20076;-91
2023/01/17 12:56:45;;;;;;;2.60;1.20;;;;;;;23.06;51.12;98168.97;20936508;28;20049;-92
2023/01/17 13:07:05;;;;;;;4.45;1.63;;;;;;;22.98;50.99;98159.31;20948719;28;20041;-92
2023/01/17 13:17:30;;;;;;;2.03;1.35;;;;;;;22.89;51.00;98163.09;20949742;28;20052;-86
2023/01/17 13:28:09;;;;;;;2.55;1.60;;;;;;;22.82;50.82;98165.63;20934901;28;20075;-86
2023/01/17 13:38:09;;;;;;;1.65;1.33;;;;;;;22.74;51.04;98163.09;20940158;28;20044;-87
2023/01/17 13:48:13;;;;;;;1.80;1.15;;;;;;;22.66;51.06;98145.53;20929989;28;20073;-89
2023/01/17 13:58:30;;;;;;;2.47;1.60;;;;;;;22.62;50.64;98138.16;20945089;28;20044;-92
2023/01/17 14:08:35;;;;;;;3.30;1.30;;;;;;;22.57;50.55;98109.72;20925268;28;20052;-91
2023/01/17 14:18:41;;;;;;;2.88;1.42;;;;;;;22.51;51.07;98078.81;20929742;28;20132;-90
2023/01/17 14:28:41;;;;;;;2.67;1.38;;;;;;;22.48;51.10;98066.78;20935440;28;20036;-88
2023/01/17 14:38:43;;;;;;;2.38;1.20;;;;;;;22.43;51.06;98037.53;20910930;28;20486;-84
2023/01/17 14:48:44;;;;;;;4.30;1.50;;;;;;;22.37;51.05;98023.25;20886323;28;20131;-82
2023/01/17 14:58:45;;;;;;;2.53;1.38;;;;;;;22.35;50.71;98013.84;20914489;28;20056;-84
2023/01/17 15:08:47;;;;;;;4.10;1.30;;;;;;;22.29;50.55;98004.88;20913776;28;20055;-85
2023/01/17 15:18:48;;;;;;;5.13;1.73;;;;;;;22.25;49.01;98027.31;20902419;28;20278;-83
2023/01/17 15:28:49;;;;;;;2.70;1.60;;;;;;;22.21;49.57;98008.41;20929743;28;20151;-92
2023/01/17 15:39:51;;;;;;;3.22;1.70;;;;;;;22.20;49.69;97995.44;20938794;28;20094;-89
2023/01/17 15:49:54;;;;;;;3.50;1.67;;;;;;;22.14;48.98;97978.56;20786543;28;20103;-89
2023/01/17 16:00:06;;;;;;;4.27;1.50;;;;;;;22.12;50.47;97959.47;20945702;28;20047;-89
2023/01/17 16:10:14;;;;;;;6.90;1.97;;;;;;;22.05;50.69;97956.72;20910601;28;20040;-86
2023/01/17 16:20:33;;;;;;;8.48;1.95;;;;;;;22.04;51.03;97949.00;20908206;28;20094;-84
2023/01/17 16:30:34;;;;;;;3.00;1.83;;;;;;;22.08;50.72;97947.63;20904681;28;20041;-86
2023/01/17 16:40:39;;;;;;;2.70;1.70;;;;;;;22.05;50.91;97933.00;20917308;28;20057;-84
2023/01/17 16:50:47;;;;;;;4.22;1.98;;;;;;;22.08;51.73;97923.91;20929942;28;20102;-86
2023/01/17 17:00:47;;;;;;;4.57;2.30;;;;;;;22.13;53.49;97911.03;20930732;28;20055;-85
2023/01/17 17:10:48;;;;;;;7.35;2.30;;;;;;;22.13;54.12;97908.38;20922917;28;20574;-88
2023/01/17 17:20:48;;;;;;;830.70;187.05;;;;;;;22.17;55.13;97893.03;20947887;28;20045;-90
2023/01/17 17:30:49;;;;;;;866.88;207.73;;;;;;;22.15;55.39;97866.03;20920187;28;20055;-89
2023/01/17 17:40:50;;;;;;;762.50;175.82;;;;;;;22.20;58.17;97847.81;20929331;28;20128;-89
2023/01/17 17:51:02;;;;;;;652.70;154.57;;;;;;;22.25;59.90;97819.06;20936343;28;20051;-87
2023/01/17 18:01:04;;;;;;;;;;;;;;;22.29;61.16;97796.63;20913643;28;20079;-84
2023/01/17 18:11:10;;;;;;;575.35;140.00;;;;;;;22.30;60.28;97766.63;20940575;28;19920;-90
2023/01/17 18:21:13;;;;;;;492.25;121.18;;;;;;;22.27;58.60;97724.81;20936140;28;20109;-90
2023/01/17 18:31:14;;;;;;;446.45;106.63;;;;;;;22.25;58.39;97697.81;20938058;28;20041;-89
2023/01/17 18:41:21;;;;;;;403.58;96.13;;;;;;;22.25;58.41;97703.09;20949721;28;20160;-93
2023/01/17 18:51:22;;;;;;;395.90;92.05;;;;;;;22.25;57.79;97682.00;20939472;28;20041;-93
2023/01/17 19:01:27;;;;;;;356.25;84.53;;;;;;;22.21;57.31;97655.22;20957821;28;20052;-91
2023/01/17 19:11:28;;;;;;;324.85;76.50;;;;;;;22.22;57.17;97624.44;20955633;28;20128;-89
2023/01/17 19:21:30;;;;;;;308.58;72.70;;;;;;;22.23;56.98;97612.88;20962660;28;20045;-87
2023/01/17 19:31:35;;;;;;;281.97;68.37;;;;;;;22.22;56.99;97590.97;20944520;28;20052;-88
2023/01/17 19:41:41;;;;;;;248.93;60.33;;;;;;;22.18;56.91;97588.91;20930435;28;20144;-82
2023/01/17 19:51:42;;;;;;;239.02;59.70;;;;;;;22.17;56.63;97548.56;20906228;28;20122;-86
2023/01/17 20:01:43;;;;;;;220.75;52.70;;;;;;;22.16;56.48;97519.78;20910314;28;20044;-90
2023/01/17 20:11:50;;;;;;;170.70;45.30;;;;;;;21.97;55.14;97494.94;20902331;28;20048;-87
2023/01/17 20:21:52;;;;;;;153.32;41.30;;;;;;;21.95;55.11;97525.94;20929776;28;20044;-88
2023/01/17 20:32:00;;;;;;;150.77;39.38;;;;;;;21.99;55.14;97503.47;20943824;28;20082;-88
2023/01/17 20:42:01;;;;;;;131.68;37.00;;;;;;;21.95;55.37;97521.47;20942048;28;20045;-87
2023/01/17 20:52:02;;;;;;;121.47;33.78;;;;;;;21.92;55.27;97508.69;20949650;28;20090;-87
2023/01/17 21:02:02;;;;;;;109.93;31.30;;;;;;;21.88;55.39;97475.84;20947721;28;20045;-88
2023/01/17 21:12:03;;;;;;;99.65;28.80;;;;;;;21.84;55.69;97419.31;20937658;28;20045;-89
2023/01/17 21:22:04;;;;;;;104.28;28.60;;;;;;;21.82;56.08;97432.66;20962676;28;20113;-86
2023/01/17 21:32:04;;;;;;;93.93;28.02;;;;;;;21.80;55.80;97365.38;20954907;28;20037;-86
2023/01/17 21:42:06;;;;;;;97.03;27.50;;;;;;;21.79;56.24;97393.53;20954022;28;20047;-86
2023/01/17 22:02:11;;;;;;;75.55;23.27;;;;;;;21.70;56.03;97353.41;20889237;28;20041;-88
2023/01/17 22:12:11;;;;;;;64.18;22.25;;;;;;;21.69;56.20;97353.56;20857976;28;20503;-88
2023/01/17 22:22:12;;;;;;;69.43;22.48;;;;;;;21.64;56.20;97312.06;20875825;28;20446;-90
2023/01/17 22:32:12;;;;;;;67.05;20.65;;;;;;;21.61;56.46;97327.44;20878890;28;20104;-89
2023/01/17 22:42:15;;;;;;;59.85;19.20;;;;;;;21.58;56.18;97337.34;20866504;28;20088;-87
2023/01/17 22:52:15;;;;;;;58.45;18.42;;;;;;;21.56;56.39;97344.63;20942639;28;20036;-87
2023/01/17 23:02:17;;;;;;;53.78;16.70;;;;;;;21.55;56.25;97355.31;20958384;28;20418;-87
2023/01/17 23:12:19;;;;;;;45.97;16.58;;;;;;;21.53;56.31;97358.16;20963997;28;20033;-88
2023/01/17 23:22:25;;;;;;;52.70;18.13;;;;;;;21.51;56.15;97378.59;20973535;28;20052;-89
2023/01/17 23:32:26;;;;;;;41.90;14.88;;;;;;;21.47;56.64;97380.00;20922068;28;20667;-88
2023/01/17 23:52:48;;;;;;;39.70;14.43;;;;;;;21.46;56.52;97381.00;20915327;28;20056;-85
